Time,TemperatureF,DewpointF,PressureIn,WindDirection,WindDirectionDegrees,WindSpeedMPH,WindSpeedGustMPH,Humidity,HourlyPrecipIn,Conditions,Clouds,dailyrainin,SoftwareType,DateUTC
2013-04-18 00:03:00,53.0,-99.9,30.25,East,86,5.0,8.0,-999,-99.99,,,-99.99,,2013-04-18 04:03:00,
2013-04-18 00:13:00,53.0,-99.9,30.26,ESE,115,7.0,10.0,-999,-99.99,,,-99.99,,2013-04-18 04:13:00,
2013-04-18 00:23:00,53.0,-99.9,30.26,East,89,4.0,8.0,-999,-99.99,,,-99.99,,2013-04-18 04:23:00,
2013-04-18 00:33:00,53.0,-99.9,30.25,East,99,4.0,9.0,-999,-99.99,,,-99.99,,2013-04-18 04:33:00,
2013-04-18 00:43:00,53.0,-99.9,30.25,ESE,120,9.0,12.0,-999,-99.99,,,-99.99,,2013-04-18 04:43:00,
2013-04-18 00:53:00,53.0,-99.9,30.25,SE,127,7.0,10.0,-999,-99.99,,,-99.99,,2013-04-18 04:53:00,
2013-04-18 01:02:00,53.0,-99.9,30.25,SE,127,7.0,10.0,-999,-99.99,,,-99.99,,2013-04-18 05:02:00,
2013-04-18 01:12:00,54.0,-99.9,30.25,ESE,120,7.0,8.0,-999,-99.99,,,-99.99,,2013-04-18 05:12:00,
2013-04-18 01:22:00,54.0,-99.9,30.25,ESE,122,7.0,10.0,-999,-99.99,,,-99.99,,2013-04-18 05:22:00,
2013-04-18 01:33:00,54.0,-99.9,30.25,ESE,120,7.0,9.0,-999,-99.99,,,-99.99,,2013-04-18 05:33:00,
2013-04-18 01:42:00,54.0,-99.9,30.24,ESE,120,8.0,10.0,-999,-99.99,,,-99.99,,2013-04-18 05:42:00,
2013-04-18 01:52:00,54.0,-99.9,30.24,ESE,119,7.0,11.0,-999,-99.99,,,-99.99,,2013-04-18 05:52:00,
2013-04-18 02:02:00,54.0,-99.9,30.24,ESE,113,4.0,9.0,-999,-99.99,,,-99.99,,2013-04-18 06:02:00,
2013-04-18 02:12:00,55.0,-99.9,30.24,ESE,120,7.0,9.0,-999,-99.99,,,-99.99,,2013-04-18 06:12:00,
2013-04-18 02:22:00,55.0,-99.9,30.24,East,95,6.0,11.0,-999,-99.99,,,-99.99,,2013-04-18 06:22:00,
2013-04-18 02:32:00,55.0,-99.9,30.24,East,97,6.0,10.0,-999,-99.99,,,-99.99,,2013-04-18 06:32:00,
2013-04-18 02:42:00,55.0,-99.9,30.24,SE,125,6.0,7.0,-999,-99.99,,,-99.99,,2013-04-18 06:42:00,
2013-04-18 02:52:00,55.0,-99.9,30.24,ESE,117,6.0,8.0,-999,-99.99,,,-99.99,,2013-04-18 06:52:00,
2013-04-18 03:02:00,55.0,-99.9,30.24,East,96,3.0,5.0,-999,-99.99,,,-99.99,,2013-04-18 07:02:00,
2013-04-18 03:12:00,55.0,-99.9,30.24,ESE,110,4.0,6.0,-999,-99.99,,,-99.99,,2013-04-18 07:12:00,
2013-04-18 03:22:00,55.0,-99.9,30.23,ESE,102,4.0,7.0,-999,-99.99,,,-99.99,,2013-04-18 07:22:00,
2013-04-18 03:32:00,55.0,-99.9,30.23,ESE,116,5.0,6.0,-999,-99.99,,,-99.99,,2013-04-18 07:32:00,
2013-04-18 03:42:00,55.0,-99.9,30.23,ESE,119,9.0,12.0,-999,-99.99,,,-99.99,,2013-04-18 07:42:00,
2013-04-18 03:53:00,55.0,-99.9,30.23,SE,126,7.0,8.0,-999,-99.99,,,-99.99,,2013-04-18 07:53:00,
2013-04-18 04:02:00,55.0,-99.9,30.22,ESE,121,7.0,9.0,-999,-99.99,,,-99.99,,2013-04-18 08:02:00,
2013-04-18 04:12:00,55.0,-99.9,30.22,ESE,115,8.0,11.0,-999,-99.99,,,-99.99,,2013-04-18 08:12:00,
2013-04-18 04:22:00,54.0,-99.9,30.23,East,82,6.0,12.0,-999,-99.99,,,-99.99,,2013-04-18 08:22:00,
2013-04-18 04:32:00,54.0,-99.9,30.23,East,92,8.0,14.0,-999,-99.99,,,-99.99,,2013-04-18 08:32:00,
2013-04-18 04:42:00,53.0,-99.9,30.22,East,95,8.0,11.0,-999,-99.99,,,-99.99,,2013-04-18 08:42:00,
2013-04-18 04:52:00,53.0,-99.9,30.22,East,91,6.0,11.0,-999,-99.99,,,-99.99,,2013-04-18 08:52:00,
2013-04-18 05:02:00,53.0,-99.9,30.22,East,100,5.0,10.0,-999,-99.99,,,-99.99,,2013-04-18 09:02:00,
2013-04-18 05:12:00,53.0,-99.9,30.22,East,87,7.0,10.0,-999,-99.99,,,-99.99,,2013-04-18 09:12:00,
2013-04-18 05:22:00,53.0,-99.9,30.23,East,99,5.0,9.0,-999,-99.99,,,-99.99,,2013-04-18 09:22:00,
2013-04-18 05:33:00,53.0,-99.9,30.23,East,93,6.0,13.0,-999,-99.99,,,-99.99,,2013-04-18 09:33:00,
2013-04-18 05:43:00,54.0,-99.9,30.23,East,91,6.0,12.0,-999,-99.99,,,-99.99,,2013-04-18 09:43:00,
2013-04-18 05:53:00,53.0,-99.9,30.23,East,95,8.0,13.0,-999,-99.99,,,-99.99,,2013-04-18 09:53:00,
2013-04-18 06:03:00,53.0,-99.9,30.22,East,91,9.0,13.0,-999,-99.99,,,-99.99,,2013-04-18 10:03:00,
2013-04-18 06:12:00,54.0,-99.9,30.22,East,95,6.0,12.0,-999,-99.99,,,-99.99,,2013-04-18 10:12:00,
2013-04-18 06:23:00,54.0,-99.9,30.22,East,94,9.0,14.0,-999,-99.99,,,-99.99,,2013-04-18 10:23:00,
2013-04-18 06:33:00,54.0,-99.9,30.22,ESE,103,6.0,14.0,-999,-99.99,,,-99.99,,2013-04-18 10:33:00,
2013-04-18 06:42:00,54.0,-99.9,30.23,ESE,107,7.0,11.0,-999,-99.99,,,-99.99,,2013-04-18 10:42:00,
2013-04-18 06:53:00,53.0,-99.9,30.24,ESE,108,9.0,15.0,-999,-99.99,,,-99.99,,2013-04-18 10:53:00,
2013-04-18 07:03:00,53.0,-99.9,30.24,ESE,118,10.0,14.0,-999,-99.99,,,-99.99,,2013-04-18 11:03:00,
2013-04-18 07:12:00,54.0,-99.9,30.24,ESE,109,10.0,19.0,-999,-99.99,,,-99.99,,2013-04-18 11:12:00,
2013-04-18 07:22:00,54.0,-99.9,30.24,SE,124,15.0,20.0,-999,-99.99,,,-99.99,,2013-04-18 11:22:00,
2013-04-18 07:33:00,54.0,-99.9,30.24,SE,125,15.0,19.0,-999,-99.99,,,-99.99,,2013-04-18 11:33:00,
2013-04-18 07:42:00,54.0,-99.9,30.24,ESE,123,15.0,19.0,-999,-99.99,,,-99.99,,2013-04-18 11:42:00,
2013-04-18 07:52:00,54.0,-99.9,30.25,ESE,121,12.0,19.0,-999,-99.99,,,-99.99,,2013-04-18 11:52:00,
2013-04-18 08:02:00,54.0,-99.9,30.25,ESE,122,14.0,18.0,-999,-99.99,,,-99.99,,2013-04-18 12:02:00,
2013-04-18 08:12:00,53.0,-99.9,30.25,ESE,123,15.0,21.0,-999,-99.99,,,-99.99,,2013-04-18 12:12:00,
2013-04-18 08:23:00,54.0,-99.9,30.24,ESE,120,17.0,21.0,-999,-99.99,,,-99.99,,2013-04-18 12:23:00,
2013-04-18 08:32:00,54.0,-99.9,30.25,SE,127,15.0,20.0,-999,-99.99,,,-99.99,,2013-04-18 12:32:00,
2013-04-18 08:42:00,54.0,-99.9,30.25,ESE,122,14.0,19.0,-999,-99.99,,,-99.99,,2013-04-18 12:42:00,
2013-04-18 08:53:00,54.0,-99.9,30.25,ESE,122,13.0,17.0,-999,-99.99,,,-99.99,,2013-04-18 12:53:00,
2013-04-18 09:03:00,54.0,-99.9,30.25,ESE,123,15.0,18.0,-999,-99.99,,,-99.99,,2013-04-18 13:03:00,
2013-04-18 09:13:00,54.0,-99.9,30.25,ESE,122,14.0,18.0,-999,-99.99,,,-99.99,,2013-04-18 13:13:00,
2013-04-18 09:22:00,54.0,-99.9,30.26,ESE,122,15.0,19.0,-999,-99.99,,,-99.99,,2013-04-18 13:22:00,
2013-04-18 09:33:00,54.0,-99.9,30.25,SE,124,13.0,18.0,-999,-99.99,,,-99.99,,2013-04-18 13:33:00,
2013-04-18 09:43:00,54.0,-99.9,30.26,ESE,116,9.0,15.0,-999,-99.99,,,-99.99,,2013-04-18 13:43:00,
2013-04-18 09:53:00,54.0,-99.9,30.26,East,97,7.0,13.0,-999,-99.99,,,-99.99,,2013-04-18 13:53:00,
2013-04-18 10:03:00,54.0,-99.9,30.26,ESE,119,12.0,18.0,-999,-99.99,,,-99.99,,2013-04-18 14:03:00,
2013-04-18 10:13:00,54.0,-99.9,30.25,SE,124,16.0,19.0,-999,-99.99,,,-99.99,,2013-04-18 14:13:00,
2013-04-18 10:22:00,54.0,-99.9,30.25,ESE,120,14.0,17.0,-999,-99.99,,,-99.99,,2013-04-18 14:22:00,
2013-04-18 10:33:00,55.0,-99.9,30.26,SE,128,14.0,18.0,-999,-99.99,,,-99.99,,2013-04-18 14:33:00,
2013-04-18 10:43:00,55.0,-99.9,30.26,SE,128,14.0,17.0,-999,-99.99,,,-99.99,,2013-04-18 14:43:00,
2013-04-18 10:52:00,55.0,-99.9,30.27,SE,129,12.0,16.0,-999,-99.99,,,-99.99,,2013-04-18 14:52:00,
2013-04-18 11:03:00,55.0,-99.9,30.27,SSE,149,10.0,17.0,-999,-99.99,,,-99.99,,2013-04-18 15:03:00,
2013-04-18 11:12:00,55.0,-99.9,30.27,SE,129,13.0,18.0,-999,-99.99,,,-99.99,,2013-04-18 15:12:00,
2013-04-18 11:23:00,55.0,-99.9,30.27,SE,136,13.0,17.0,-999,-99.99,,,-99.99,,2013-04-18 15:23:00,
2013-04-18 11:33:00,55.0,-99.9,30.27,SE,133,12.0,15.0,-999,-99.99,,,-99.99,,2013-04-18 15:33:00,
2013-04-18 11:43:00,55.0,-99.9,30.27,SE,127,13.0,16.0,-999,-99.99,,,-99.99,,2013-04-18 15:43:00,
2013-04-18 11:53:00,55.0,-99.9,30.27,SE,142,14.0,19.0,-999,-99.99,,,-99.99,,2013-04-18 15:53:00,
2013-04-18 12:03:00,55.0,-99.9,30.27,SE,133,15.0,19.0,-999,-99.99,,,-99.99,,2013-04-18 16:03:00,
2013-04-18 12:13:00,55.0,-99.9,30.26,SE,133,13.0,18.0,-999,-99.99,,,-99.99,,2013-04-18 16:13:00,
2013-04-18 12:23:00,56.0,-99.9,30.25,SE,137,15.0,21.0,-999,-99.99,,,-99.99,,2013-04-18 16:23:00,
2013-04-18 12:33:00,56.0,-99.9,30.25,SE,136,17.0,21.0,-999,-99.99,,,-99.99,,2013-04-18 16:33:00,
2013-04-18 12:43:00,57.0,-99.9,30.24,SE,131,16.0,20.0,-999,-99.99,,,-99.99,,2013-04-18 16:43:00,
2013-04-18 12:53:00,59.0,-99.9,30.23,SE,131,19.0,23.0,-999,-99.99,,,-99.99,,2013-04-18 16:53:00,
2013-04-18 13:03:00,59.0,-99.9,30.23,SE,129,16.0,23.0,-999,-99.99,,,-99.99,,2013-04-18 17:03:00,
2013-04-18 13:13:00,60.0,-99.9,30.23,SE,143,16.0,21.0,-999,-99.99,,,-99.99,,2013-04-18 17:13:00,
2013-04-18 13:22:00,61.0,-99.9,30.22,SE,143,14.0,17.0,-999,-99.99,,,-99.99,,2013-04-18 17:22:00,
2013-04-18 13:33:00,60.0,-99.9,30.22,SE,125,15.0,19.0,-999,-99.99,,,-99.99,,2013-04-18 17:33:00,
2013-04-18 13:43:00,61.0,-99.9,30.22,SE,143,14.0,20.0,-999,-99.99,,,-99.99,,2013-04-18 17:43:00,
2013-04-18 13:52:00,61.0,-99.9,30.22,SE,142,14.0,18.0,-999,-99.99,,,-99.99,,2013-04-18 17:52:00,
2013-04-18 14:03:00,61.0,-99.9,30.22,SE,138,14.0,19.0,-999,-99.99,,,-99.99,,2013-04-18 18:03:00,
2013-04-18 14:13:00,61.0,-99.9,30.22,SE,131,13.0,18.0,-999,-99.99,,,-99.99,,2013-04-18 18:13:00,
2013-04-18 14:23:00,61.0,-99.9,30.22,SE,130,15.0,19.0,-999,-99.99,,,-99.99,,2013-04-18 18:23:00,
2013-04-18 14:33:00,61.0,-99.9,30.21,SE,146,14.0,20.0,-999,-99.99,,,-99.99,,2013-04-18 18:33:00,
2013-04-18 14:43:00,61.0,-99.9,30.21,SE,134,15.0,21.0,-999,-99.99,,,-99.99,,2013-04-18 18:43:00,
2013-04-18 14:53:00,61.0,-99.9,30.21,SE,132,15.0,20.0,-999,-99.99,,,-99.99,,2013-04-18 18:53:00,
2013-04-18 15:03:00,61.0,-99.9,30.20,SE,132,14.0,19.0,-999,-99.99,,,-99.99,,2013-04-18 19:03:00,
2013-04-18 15:13:00,61.0,-99.9,30.20,SE,146,13.0,19.0,-999,-99.99,,,-99.99,,2013-04-18 19:13:00,
2013-04-18 15:22:00,61.0,-99.9,30.20,SE,133,15.0,20.0,-999,-99.99,,,-99.99,,2013-04-18 19:22:00,
2013-04-18 15:33:00,60.0,-99.9,30.19,SE,138,14.0,18.0,-999,-99.99,,,-99.99,,2013-04-18 19:33:00,
2013-04-18 15:43:00,60.0,-99.9,30.19,SE,140,13.0,17.0,-999,-99.99,,,-99.99,,2013-04-18 19:43:00,
2013-04-18 15:53:00,60.0,-99.9,30.19,SE,141,11.0,16.0,-999,-99.99,,,-99.99,,2013-04-18 19:53:00,
2013-04-18 16:03:00,60.0,-99.9,30.19,SE,144,12.0,17.0,-999,-99.99,,,-99.99,,2013-04-18 20:03:00,
2013-04-18 16:12:00,60.0,-99.9,30.18,SSE,150,11.0,13.0,-999,-99.99,,,-99.99,,2013-04-18 20:12:00,
2013-04-18 16:22:00,59.0,-99.9,30.18,SSE,155,13.0,19.0,-999,-99.99,,,-99.99,,2013-04-18 20:22:00,
2013-04-18 16:32:00,59.0,-99.9,30.18,SSE,155,12.0,17.0,-999,-99.99,,,-99.99,,2013-04-18 20:32:00,
2013-04-18 16:43:00,59.0,-99.9,30.17,SSE,162,11.0,16.0,-999,-99.99,,,-99.99,,2013-04-18 20:43:00,
2013-04-18 16:52:00,58.0,-99.9,30.17,SSE,152,13.0,17.0,-999,-99.99,,,-99.99,,2013-04-18 20:52:00,
2013-04-18 17:03:00,58.0,-99.9,30.16,SSE,153,14.0,20.0,-999,-99.99,,,-99.99,,2013-04-18 21:03:00,
2013-04-18 17:12:00,58.0,-99.9,30.16,SE,143,11.0,14.0,-999,-99.99,,,-99.99,,2013-04-18 21:12:00,
2013-04-18 17:22:00,58.0,-99.9,30.16,SE,144,10.0,13.0,-999,-99.99,,,-99.99,,2013-04-18 21:22:00,
2013-04-18 17:33:00,58.0,-99.9,30.16,SSE,150,12.0,17.0,-999,-99.99,,,-99.99,,2013-04-18 21:33:00,
2013-04-18 17:43:00,58.0,-99.9,30.15,SSE,148,11.0,16.0,-999,-99.99,,,-99.99,,2013-04-18 21:43:00,
2013-04-18 17:53:00,58.0,-99.9,30.16,SSE,152,12.0,15.0,-999,-99.99,,,-99.99,,2013-04-18 21:53:00,
2013-04-18 18:03:00,57.0,-99.9,30.15,SSE,149,9.0,13.0,-999,-99.99,,,-99.99,,2013-04-18 22:03:00,
2013-04-18 18:13:00,57.0,-99.9,30.15,SSE,158,10.0,15.0,-999,-99.99,,,-99.99,,2013-04-18 22:13:00,
2013-04-18 18:23:00,56.0,-99.9,30.14,SSE,152,10.0,14.0,-999,-99.99,,,-99.99,,2013-04-18 22:23:00,
2013-04-18 18:33:00,56.0,-99.9,30.14,SE,146,10.0,14.0,-999,-99.99,,,-99.99,,2013-04-18 22:33:00,
2013-04-18 18:42:00,56.0,-99.9,30.14,SSE,155,11.0,15.0,-999,-99.99,,,-99.99,,2013-04-18 22:42:00,
2013-04-18 18:53:00,57.0,-99.9,30.13,SE,145,9.0,12.0,-999,-99.99,,,-99.99,,2013-04-18 22:53:00,
2013-04-18 19:04:00,57.0,-99.9,30.13,SSE,154,9.0,14.0,-999,-99.99,,,-99.99,,2013-04-18 23:04:00,
2013-04-18 19:12:00,58.0,-99.9,30.13,SSE,155,9.0,14.0,-999,-99.99,,,-99.99,,2013-04-18 23:12:00,
2013-04-18 19:22:00,57.0,-99.9,30.13,SSE,150,9.0,14.0,-999,-99.99,,,-99.99,,2013-04-18 23:22:00,
2013-04-18 19:32:00,57.0,-99.9,30.13,SE,145,9.0,13.0,-999,-99.99,,,-99.99,,2013-04-18 23:32:00,
2013-04-18 19:42:00,57.0,-99.9,30.13,SSE,148,10.0,13.0,-999,-99.99,,,-99.99,,2013-04-18 23:42:00,
2013-04-18 19:52:00,56.0,-99.9,30.13,SE,144,10.0,13.0,-999,-99.99,,,-99.99,,2013-04-18 23:52:00,
2013-04-18 20:01:00,56.0,-99.9,30.13,SE,139,10.0,13.0,-999,-99.99,,,-99.99,,2013-04-19 00:01:00,
2013-04-18 20:12:00,56.0,-99.9,30.13,SE,145,10.0,12.0,-999,-99.99,,,-99.99,,2013-04-19 00:12:00,
2013-04-18 20:22:00,56.0,-99.9,30.13,SE,146,8.0,13.0,-999,-99.99,,,-99.99,,2013-04-19 00:22:00,
2013-04-18 20:32:00,56.0,-99.9,30.13,SE,142,8.0,11.0,-999,-99.99,,,-99.99,,2013-04-19 00:32:00,
2013-04-18 20:42:00,56.0,-99.9,30.13,SE,143,9.0,11.0,-999,-99.99,,,-99.99,,2013-04-19 00:42:00,
2013-04-18 20:52:00,56.0,-99.9,30.13,SE,142,9.0,14.0,-999,-99.99,,,-99.99,,2013-04-19 00:52:00,
2013-04-18 21:01:00,56.0,-99.9,30.13,SE,136,10.0,13.0,-999,-99.99,,,-99.99,,2013-04-19 01:01:00,
2013-04-18 21:11:00,56.0,-99.9,30.13,SE,145,9.0,13.0,-999,-99.99,,,-99.99,,2013-04-19 01:11:00,
2013-04-18 21:21:00,56.0,-99.9,30.13,SE,144,9.0,11.0,-999,-99.99,,,-99.99,,2013-04-19 01:21:00,
2013-04-18 21:32:00,56.0,-99.9,30.13,SE,142,7.0,13.0,-999,-99.99,,,-99.99,,2013-04-19 01:32:00,
2013-04-18 21:42:00,56.0,-99.9,30.12,SE,143,9.0,14.0,-999,-99.99,,,-99.99,,2013-04-19 01:42:00,
2013-04-18 21:52:00,56.0,-99.9,30.12,SE,146,9.0,13.0,-999,-99.99,,,-99.99,,2013-04-19 01:52:00,
2013-04-18 22:02:00,57.0,-99.9,30.12,SSE,150,9.0,13.0,-999,-99.99,,,-99.99,,2013-04-19 02:02:00,
2013-04-18 22:11:00,56.0,-99.9,30.12,SE,146,9.0,14.0,-999,-99.99,,,-99.99,,2013-04-19 02:11:00,
2013-04-18 22:21:00,56.0,-99.9,30.11,SSE,151,10.0,15.0,-999,-99.99,,,-99.99,,2013-04-19 02:21:00,
2013-04-18 22:32:00,57.0,-99.9,30.11,SSE,153,10.0,15.0,-999,-99.99,,,-99.99,,2013-04-19 02:32:00,
2013-04-18 22:42:00,58.0,-99.9,30.10,SSE,157,11.0,18.0,-999,-99.99,,,-99.99,,2013-04-19 02:42:00,
2013-04-18 22:52:00,59.0,-99.9,30.10,SSE,161,12.0,17.0,-999,-99.99,,,-99.99,,2013-04-19 02:52:00,
2013-04-18 23:01:00,59.0,-99.9,30.10,SSE,163,12.0,15.0,-999,-99.99,,,-99.99,,2013-04-19 03:01:00,
2013-04-18 23:12:00,59.0,-99.9,30.09,SSE,153,10.0,15.0,-999,-99.99,,,-99.99,,2013-04-19 03:12:00,
2013-04-18 23:22:00,59.0,-99.9,30.09,SSE,152,12.0,18.0,-999,-99.99,,,-99.99,,2013-04-19 03:22:00,
2013-04-18 23:33:00,59.0,-99.9,30.09,SSE,154,12.0,16.0,-999,-99.99,,,-99.99,,2013-04-19 03:33:00,
2013-04-18 23:43:00,59.0,-99.9,30.08,SSE,155,13.0,20.0,-999,-99.99,,,-99.99,,2013-04-19 03:43:00,
2013-04-18 23:54:00,58.0,-99.9,30.08,SSE,161,12.0,19.0,-999,-99.99,,,-99.99,,2013-04-19 03:54:00,